createdAt,value
2023-01-07T00:01:52.788Z,99157.84
2023-01-07T00:05:10.181Z,99156.72
2023-01-07T00:08:26.608Z,99158.22
2023-01-07T00:11:45.707Z,99165.85
2023-01-07T00:15:02.087Z,99161.39
2023-01-07T00:18:18.545Z,99168.02
2023-01-07T00:21:36.959Z,99171.34
2023-01-07T00:24:54.207Z,99170.53
2023-01-07T00:28:11.905Z,99176.46
2023-01-07T00:31:30.958Z,99169.39
2023-01-07T00:34:45.147Z,99171.19
2023-01-07T00:38:01.924Z,99175.80
2023-01-07T00:41:19.286Z,99179.27
2023-01-07T00:44:35.948Z,99180.92
2023-01-07T00:47:54.261Z,99182.72
2023-01-07T00:51:10.720Z,99184.09
2023-01-07T00:54:27.275Z,99193.95
2023-01-07T00:57:43.799Z,99186.73
2023-01-07T01:01:06.008Z,99188.08
2023-01-07T01:04:23.004Z,99193.89
2023-01-07T01:07:40.221Z,99193.20
2023-01-07T01:10:58.940Z,99195.71
2023-01-07T01:14:15.519Z,99207.77
2023-01-07T01:17:34.684Z,99204.00
2023-01-07T01:20:54.225Z,99210.78
2023-01-07T01:24:10.645Z,99206.33
2023-01-07T01:27:27.866Z,99215.91
2023-01-07T01:30:46.653Z,99204.22
2023-01-07T01:34:05.594Z,99208.52
2023-01-07T01:37:23.495Z,99206.86
2023-01-07T01:40:40.662Z,99206.70
2023-01-07T01:43:57.368Z,99213.80
2023-01-07T01:47:21.582Z,99211.32
2023-01-07T01:50:42.945Z,99204.22
2023-01-07T01:54:00.466Z,99205.51
2023-01-07T01:57:17.605Z,99208.31
2023-01-07T02:00:36.040Z,99221.34
2023-01-07T02:03:58.505Z,99219.84
2023-01-07T02:07:19.981Z,99227.88
2023-01-07T02:10:38.370Z,99215.00
2023-01-07T02:14:08.304Z,99228.88
2023-01-07T02:17:30.580Z,99232.34
2023-01-07T02:21:12.856Z,99226.91
2023-01-07T02:25:28.066Z,99232.34
2023-01-07T02:29:12.218Z,99227.88
2023-01-07T02:32:49.473Z,99225.71
2023-01-07T02:36:26.034Z,99236.92
2023-01-07T02:39:51.628Z,99240.26
2023-01-07T02:43:15.826Z,99244.03
2023-01-07T02:46:39.219Z,99235.95
2023-01-07T02:49:59.151Z,99235.95
2023-01-07T02:53:18.474Z,99239.28
2023-01-07T02:56:43.612Z,99233.16
2023-01-07T03:00:23.504Z,99236.33
2023-01-07T03:03:58.944Z,99237.33
2023-01-07T03:07:33.013Z,99234.16
2023-01-07T03:10:54.434Z,99239.13
2023-01-07T03:14:17.245Z,99238.31
2023-01-07T03:17:39.477Z,99238.31
2023-01-07T03:21:00.222Z,99241.08
2023-01-07T03:24:18.639Z,99241.92
2023-01-07T03:27:39.242Z,99239.44
2023-01-07T03:30:57.942Z,99243.33
2023-01-07T03:34:18.677Z,99242.30
2023-01-07T03:37:39.998Z,99234.13
2023-01-07T03:40:57.265Z,99239.02
2023-01-07T03:44:16.908Z,99237.36
2023-01-07T03:47:34.004Z,99237.67
2023-01-07T03:50:50.609Z,99234.34
2023-01-07T03:54:07.223Z,99237.13
2023-01-07T03:57:24.441Z,99243.53
2023-01-07T04:00:41.236Z,99242.14
2023-01-07T04:04:03.346Z,99244.94
2023-01-07T04:07:20.132Z,99234.70
2023-01-07T04:10:36.375Z,99236.64
2023-01-07T04:13:54.092Z,99239.58
2023-01-07T04:17:11.646Z,99242.66
2023-01-07T04:20:28.138Z,99246.69
2023-01-07T04:23:44.651Z,99249.48
2023-01-07T04:27:01.358Z,99241.33
2023-01-07T04:30:19.835Z,99244.16
2023-01-07T04:33:36.737Z,99250.58
2023-01-07T04:36:53.410Z,99249.30
2023-01-07T04:40:12.111Z,99257.48
2023-01-07T04:43:28.516Z,99253.05
2023-01-07T04:46:45.012Z,99248.06
2023-01-07T04:50:03.279Z,99251.97
2023-01-07T04:53:21.994Z,99253.90
2023-01-07T04:56:38.565Z,99260.98
2023-01-07T04:59:58.118Z,99246.56
2023-01-07T05:03:15.392Z,99255.59
2023-01-07T05:06:32.699Z,99257.41
2023-01-07T05:09:49.132Z,99261.70
2023-01-07T05:13:09.487Z,99262.38
2023-01-07T05:16:26.678Z,99261.85
2023-01-07T05:19:46.400Z,99265.16
2023-01-07T05:23:02.914Z,99265.86
2023-01-07T05:26:19.355Z,99267.80
2023-01-07T05:29:38.982Z,99262.94
2023-01-07T05:32:55.175Z,99267.14
2023-01-07T05:36:12.755Z,99269.63
2023-01-07T05:39:28.956Z,99266.30
2023-01-07T05:42:45.927Z,99270.05
2023-01-07T05:46:03.306Z,99276.72
2023-01-07T05:49:19.939Z,99279.77
2023-01-07T05:52:36.128Z,99276.28
2023-01-07T05:55:52.956Z,99281.81
2023-01-07T05:59:09.152Z,99280.29
2023-01-07T06:02:25.528Z,99277.92
2023-01-07T06:05:43.219Z,99285.41
2023-01-07T06:09:00.184Z,99279.03
2023-01-07T06:12:16.971Z,99285.43
2023-01-07T06:15:34.139Z,99285.81
2023-01-07T06:18:50.767Z,99288.84
2023-01-07T06:22:07.410Z,99286.55
2023-01-07T06:25:23.987Z,99293.55
2023-01-07T06:28:41.119Z,99294.08
2023-01-07T06:31:57.365Z,99288.52
2023-01-07T06:35:16.284Z,99292.50
2023-01-07T06:38:32.505Z,99287.90
2023-01-07T06:41:48.922Z,99298.60
2023-01-07T06:45:05.143Z,99295.09
2023-01-07T06:48:21.500Z,99306.63
2023-01-07T06:51:37.588Z,99310.17
2023-01-07T06:54:54.334Z,99308.28
2023-01-07T06:58:10.552Z,99309.80
2023-01-07T07:01:27.427Z,99309.93
2023-01-07T07:04:43.636Z,99306.08
2023-01-07T07:08:01.151Z,99306.53
2023-01-07T07:11:17.520Z,99303.41
2023-01-07T07:14:35.193Z,99300.67
2023-01-07T07:17:51.488Z,99298.16
2023-01-07T07:21:08.006Z,99304.13
2023-01-07T07:24:26.383Z,99298.61
2023-01-07T07:27:43.061Z,99295.81
2023-01-07T07:30:59.467Z,99297.99
2023-01-07T07:34:16.802Z,99303.61
2023-01-07T07:37:33.121Z,99298.46
2023-01-07T07:40:49.853Z,99302.22
2023-01-07T07:44:06.318Z,99305.16
2023-01-07T07:47:23.081Z,99316.13
2023-01-07T07:50:42.504Z,99310.64
2023-01-07T07:53:59.638Z,99315.48
2023-01-07T07:57:17.410Z,99317.45
2023-01-07T08:00:37.079Z,99314.09
2023-01-07T08:03:53.929Z,99312.81
2023-01-07T08:07:10.636Z,99309.74
2023-01-07T08:10:27.819Z,99309.72
2023-01-07T08:13:45.093Z,99314.97
2023-01-07T08:17:01.395Z,99315.48
2023-01-07T08:20:20.068Z,99313.27
2023-01-07T08:23:36.616Z,99300.26
2023-01-07T08:26:57.611Z,99304.35
2023-01-07T08:30:17.887Z,99301.21
2023-01-07T08:33:36.494Z,99302.28
2023-01-07T08:36:52.804Z,99303.26
2023-01-07T08:40:09.820Z,99300.60
2023-01-07T08:43:26.001Z,99307.31
2023-01-07T08:46:43.621Z,99306.47
2023-01-07T08:49:59.990Z,99303.97
2023-01-07T08:53:16.678Z,99303.88
2023-01-07T08:56:34.320Z,99310.19
2023-01-07T08:59:51.748Z,99317.39
2023-01-07T09:03:09.347Z,99317.88
2023-01-07T09:06:25.875Z,99320.42
2023-01-07T09:09:43.913Z,99318.30
2023-01-07T09:13:00.733Z,99323.02
2023-01-07T09:16:17.616Z,99330.98
2023-01-07T09:19:34.496Z,99322.06
2023-01-07T09:22:50.734Z,99320.96
2023-01-07T09:26:07.579Z,99324.82
2023-01-07T09:29:23.712Z,99327.68
2023-01-07T09:32:39.987Z,99329.98
2023-01-07T09:35:59.069Z,99319.58
2023-01-07T09:39:17.527Z,99330.17
2023-01-07T09:42:39.551Z,99320.59
2023-01-07T09:46:00.662Z,99325.45
2023-01-07T09:49:21.806Z,99319.00
2023-01-07T09:52:42.719Z,99319.36
2023-01-07T09:56:12.461Z,99322.03
2023-01-07T09:59:22.990Z,99320.88
2023-01-07T10:02:47.207Z,99319.37
2023-01-07T10:06:12.648Z,99316.39
2023-01-07T10:09:37.517Z,99318.23
2023-01-07T10:12:58.679Z,99317.22
2023-01-07T10:16:23.106Z,99304.79
2023-01-07T10:19:44.965Z,99298.67
2023-01-07T10:23:06.805Z,99304.82
2023-01-07T10:26:35.406Z,99305.31
2023-01-07T10:29:56.367Z,99296.19
2023-01-07T10:33:26.014Z,99281.77
2023-01-07T10:36:49.531Z,99289.23
2023-01-07T10:40:33.358Z,99277.45
2023-01-07T10:44:09.465Z,99278.80
2023-01-07T10:47:37.230Z,99275.93
2023-01-07T10:51:20.523Z,99275.78
2023-01-07T10:54:57.790Z,99269.48
2023-01-07T10:58:16.739Z,99276.95
2023-01-07T11:01:39.529Z,99278.80
2023-01-07T11:04:55.829Z,99277.45
2023-01-07T11:08:17.202Z,99276.29
2023-01-07T11:11:36.840Z,99269.52
2023-01-07T11:14:54.622Z,99268.68
2023-01-07T11:18:16.440Z,99259.58
2023-01-07T11:21:50.472Z,99259.09
2023-01-07T11:25:08.754Z,99255.43
2023-01-07T11:28:32.520Z,99253.13
2023-01-07T11:32:01.292Z,99248.77
2023-01-07T11:35:29.057Z,99241.98
2023-01-07T11:38:48.116Z,99241.52
2023-01-07T11:42:10.895Z,99232.87
2023-01-07T11:45:31.053Z,99236.63
2023-01-07T11:49:45.911Z,99231.17
2023-01-07T11:52:28.981Z,99217.43
2023-01-07T11:55:45.613Z,99215.50
2023-01-07T11:59:23.805Z,99206.23
2023-01-07T12:02:42.706Z,99205.89
2023-01-07T12:06:03.121Z,99209.36
2023-01-07T12:09:40.909Z,99208.84
2023-01-07T12:12:57.429Z,99209.52
2023-01-07T12:16:16.628Z,99202.26
2023-01-07T12:19:50.913Z,99197.61
2023-01-07T12:23:15.461Z,99191.36
2023-01-07T12:26:38.658Z,99192.37
2023-01-07T12:30:06.601Z,99188.39
2023-01-07T12:33:33.802Z,99187.41
2023-01-07T12:36:55.989Z,99189.06
2023-01-07T12:40:30.767Z,99180.46
2023-01-07T12:43:51.265Z,99183.11
2023-01-07T12:47:30.893Z,99178.63
2023-01-07T12:50:44.369Z,99177.95
2023-01-07T12:54:06.207Z,99180.60
2023-01-07T12:57:27.122Z,99179.46
2023-01-07T13:00:49.074Z,99175.30
2023-01-07T13:04:14.556Z,99178.61
2023-01-07T13:07:36.987Z,99177.45
2023-01-07T13:10:57.880Z,99169.98
2023-01-07T13:14:22.981Z,99174.47
2023-01-07T13:17:41.546Z,99165.55
2023-01-07T13:21:11.971Z,99158.42
2023-01-07T13:24:55.709Z,99151.80
2023-01-07T13:29:01.738Z,99157.77
2023-01-07T13:32:43.820Z,99155.44
2023-01-07T13:36:13.014Z,99147.67
2023-01-07T13:39:50.126Z,99147.33
2023-01-07T13:43:12.790Z,99151.13
2023-01-07T13:46:33.844Z,99157.58
2023-01-07T13:49:56.341Z,99157.08
2023-01-07T13:53:21.481Z,99159.72
2023-01-07T13:56:47.609Z,99153.62
2023-01-07T14:00:06.822Z,99158.74
2023-01-07T14:03:54.133Z,99156.75
2023-01-07T14:07:15.731Z,99153.59
2023-01-07T14:10:36.275Z,99154.75
2023-01-07T14:13:57.347Z,99153.59
2023-01-07T14:17:20.207Z,99148.16
2023-01-07T14:20:43.140Z,99149.96
2023-01-07T14:24:10.573Z,99137.38
2023-01-07T14:27:44.275Z,99144.50
2023-01-07T14:31:02.961Z,99136.39
2023-01-07T14:34:28.689Z,99135.72
2023-01-07T14:37:47.824Z,99139.74
2023-01-07T14:41:16.745Z,99141.61
2023-01-07T14:44:40.114Z,99134.50
2023-01-07T14:48:03.234Z,99128.70
2023-01-07T14:51:41.516Z,99133.34
2023-01-07T14:55:39.823Z,99126.69
2023-01-07T14:59:27.392Z,99127.67
2023-01-07T15:03:29.310Z,99120.89
2023-01-07T15:06:47.961Z,99119.72
2023-01-07T15:10:22.021Z,99113.11
2023-01-07T15:13:56.350Z,99120.00
2023-01-07T15:17:13.131Z,99122.94
2023-01-07T15:20:30.288Z,99115.97
2023-01-07T15:23:51.888Z,99113.84
2023-01-07T15:27:14.297Z,99112.82
2023-01-07T15:30:44.075Z,99110.38
2023-01-07T15:34:17.988Z,99109.27
2023-01-07T15:37:34.670Z,99103.53
2023-01-07T15:40:54.865Z,99108.32
2023-01-07T15:44:13.392Z,99108.20
2023-01-07T15:47:48.350Z,99107.52
2023-01-07T15:51:05.452Z,99106.09
2023-01-07T15:54:47.027Z,99114.39
2023-01-07T15:58:11.604Z,99093.91
2023-01-07T16:01:31.050Z,99100.98
2023-01-07T16:04:49.334Z,99093.02
2023-01-07T16:08:07.752Z,99089.67
2023-01-07T16:11:34.966Z,99088.61
2023-01-07T16:14:51.162Z,99095.09
2023-01-07T16:18:09.887Z,99091.67
2023-01-07T16:21:26.525Z,99090.86
2023-01-07T16:24:43.466Z,99087.13
2023-01-07T16:28:00.805Z,99081.61
2023-01-07T16:31:21.262Z,99066.25
2023-01-07T16:35:03.524Z,99062.38
2023-01-07T16:38:20.739Z,99057.80
2023-01-07T16:41:38.275Z,99053.23
2023-01-07T16:45:10.257Z,99043.41
2023-01-07T16:48:29.172Z,99046.18
2023-01-07T16:51:48.872Z,99042.81
2023-01-07T16:55:05.264Z,99043.91
2023-01-07T16:58:38.230Z,99042.39
2023-01-07T17:01:54.870Z,99037.11
2023-01-07T17:05:25.525Z,99037.37
2023-01-07T17:08:43.149Z,99030.80
2023-01-07T17:12:01.032Z,99036.23
2023-01-07T17:15:44.405Z,99030.22
2023-01-07T17:19:02.613Z,99021.78
2023-01-07T17:22:39.116Z,99028.64
2023-01-07T17:25:55.580Z,99020.53
2023-01-07T17:29:16.851Z,99027.30
2023-01-07T17:32:33.179Z,99028.27
2023-01-07T17:35:55.049Z,99025.00
2023-01-07T17:39:11.547Z,99019.63
2023-01-07T17:42:52.252Z,99026.74
2023-01-07T17:46:09.745Z,99018.80
2023-01-07T17:49:26.344Z,99022.82
2023-01-07T17:52:42.750Z,99031.06
2023-01-07T17:55:59.095Z,99030.44
2023-01-07T17:59:17.913Z,99030.99
2023-01-07T18:02:37.178Z,99041.55
2023-01-07T18:05:51.212Z,99039.06
2023-01-07T18:09:09.648Z,99039.53
2023-01-07T18:12:37.092Z,99038.99
2023-01-07T18:15:53.218Z,99032.22
2023-01-07T18:19:09.546Z,99029.94
2023-01-07T18:22:26.248Z,99045.67
2023-01-07T18:25:42.616Z,99046.48
2023-01-07T18:28:59.578Z,99037.59
2023-01-07T18:32:16.324Z,99030.55
2023-01-07T18:35:32.744Z,99042.33
2023-01-07T18:38:50.566Z,99037.35
2023-01-07T18:42:06.934Z,99039.31
2023-01-07T18:45:23.962Z,99045.73
2023-01-07T18:48:40.178Z,99038.14
2023-01-07T18:51:57.343Z,99036.66
2023-01-07T18:55:17.351Z,99040.59
2023-01-07T18:58:34.066Z,99042.97
2023-01-07T19:01:50.325Z,99049.16
2023-01-07T19:05:08.001Z,99045.14
2023-01-07T19:08:24.071Z,99045.07
2023-01-07T19:11:40.312Z,99053.48
2023-01-07T19:14:56.563Z,99046.05
2023-01-07T19:18:13.280Z,99046.99
2023-01-07T19:21:29.644Z,99042.11
2023-01-07T19:24:45.972Z,99041.50
2023-01-07T19:28:02.163Z,99043.55
2023-01-07T19:31:19.137Z,99036.16
2023-01-07T19:34:36.046Z,99040.58
2023-01-07T19:37:52.240Z,99040.68
2023-01-07T19:41:08.586Z,99037.83
2023-01-07T19:44:25.219Z,99037.23
2023-01-07T19:47:42.787Z,99038.31
2023-01-07T19:51:06.210Z,99040.91
2023-01-07T19:54:24.211Z,99038.04
2023-01-07T19:57:40.589Z,99033.36
2023-01-07T20:00:58.036Z,99024.13
2023-01-07T20:04:15.228Z,99026.25
2023-01-07T20:07:33.401Z,99034.39
2023-01-07T20:10:49.861Z,99029.75
2023-01-07T20:14:05.895Z,99034.03
2023-01-07T20:17:22.260Z,99032.98
2023-01-07T20:20:38.670Z,99030.25
2023-01-07T20:27:10.922Z,99017.09
2023-01-07T20:30:27.279Z,99011.40
2023-01-07T20:33:44.413Z,99017.73
2023-01-07T20:40:19.573Z,99015.91
2023-01-07T20:43:35.960Z,99013.50
2023-01-07T20:46:52.627Z,99013.98
2023-01-07T20:50:10.578Z,99020.52
2023-01-07T20:53:27.582Z,99005.81
2023-01-07T20:56:45.665Z,99002.79
2023-01-07T21:00:02.113Z,99005.23
2023-01-07T21:03:18.573Z,99010.83
2023-01-07T21:06:36.782Z,99001.75
2023-01-07T21:13:13.033Z,98998.69
2023-01-07T21:16:30.325Z,98995.48
2023-01-07T21:19:49.618Z,98998.50
2023-01-07T21:26:25.930Z,99001.22
2023-01-07T21:29:42.704Z,99011.14
2023-01-07T21:32:58.995Z,99011.17
2023-01-07T21:36:22.492Z,99008.34
2023-01-07T21:42:55.041Z,99010.68
2023-01-07T21:46:12.149Z,98999.48
2023-01-07T21:49:28.524Z,99002.14
2023-01-07T21:56:01.428Z,98992.66
2023-01-07T21:59:18.614Z,98994.22
2023-01-07T22:02:36.024Z,98995.17
2023-01-07T22:06:02.265Z,98994.83
2023-01-07T22:12:33.948Z,98992.44
2023-01-07T22:15:51.034Z,98990.67
2023-01-07T22:19:07.857Z,98979.02
2023-01-07T22:22:24.142Z,98981.98
2023-01-07T22:25:41.542Z,98977.59
2023-01-07T22:29:03.754Z,98973.39
2023-01-07T22:32:20.016Z,98968.06
2023-01-07T22:35:37.336Z,98955.20
2023-01-07T22:42:13.618Z,98950.92
2023-01-07T22:45:35.589Z,98949.03
2023-01-07T22:48:54.600Z,98955.56
2023-01-07T22:52:12.013Z,98947.61
2023-01-07T22:55:29.081Z,98940.34
2023-01-07T22:58:45.287Z,98934.91
2023-01-07T23:02:01.416Z,98934.91
2023-01-07T23:05:18.313Z,98934.45
2023-01-07T23:08:34.680Z,98934.94
2023-01-07T23:11:55.754Z,98934.10
2023-01-07T23:15:13.778Z,98924.82
2023-01-07T23:18:30.155Z,98924.34
2023-01-07T23:21:49.976Z,98912.23
2023-01-07T23:28:22.716Z,98896.21
2023-01-07T23:31:39.755Z,98890.86
2023-01-07T23:34:56.278Z,98892.52
2023-01-07T23:38:12.424Z,98890.16
2023-01-07T23:41:28.878Z,98889.81
2023-01-07T23:44:45.136Z,98896.91
2023-01-07T23:48:01.411Z,98889.80
2023-01-07T23:51:20.938Z,98883.63
2023-01-07T23:54:37.233Z,98878.86
2023-01-07T23:57:53.480Z,98882.42
